sensor_id;sensor_type;location;lat;lon;timestamp;pressure;altitude;pressure_sealevel;temperature;humidity
36828;BME280;22766;48.042;11.192;2023-02-04T00:00:05;95943.56;;;3.34;100.00
36828;BME280;22766;48.042;11.192;2023-02-04T00:02:33;95937.44;;;3.36;100.00
36828;BME280;22766;48.042;11.192;2023-02-04T00:04:59;95945.69;;;3.41;100.00
36828;BME280;22766;48.042;11.192;2023-02-04T00:07:26;95931.91;;;3.44;100.00
36828;BME280;22766;48.042;11.192;2023-02-04T00:09:52;95935.63;;;3.38;100.00
36828;BME280;22766;48.042;11.192;2023-02-04T00:12:19;95931.25;;;3.40;100.00
36828;BME280;22766;48.042;11.192;2023-02-04T00:14:46;95934.41;;;3.45;100.00
36828;BME280;22766;48.042;11.192;2023-02-04T00:17:12;95935.72;;;3.37;100.00
36828;BME280;22766;48.042;11.192;2023-02-04T00:19:40;95938.03;;;3.41;100.00
36828;BME280;22766;48.042;11.192;2023-02-04T00:22:07;95943.28;;;3.38;100.00
36828;BME280;22766;48.042;11.192;2023-02-04T00:24:34;95954.16;;;3.42;100.00
36828;BME280;22766;48.042;11.192;2023-02-04T00:27:02;95951.47;;;3.29;100.00
36828;BME280;22766;48.042;11.192;2023-02-04T00:29:29;95948.75;;;3.32;100.00
36828;BME280;22766;48.042;11.192;2023-02-04T00:31:56;95950.56;;;3.30;100.00
36828;BME280;22766;48.042;11.192;2023-02-04T00:34:23;95945.47;;;3.30;100.00
36828;BME280;22766;48.042;11.192;2023-02-04T00:36:50;95953.19;;;3.29;100.00
36828;BME280;22766;48.042;11.192;2023-02-04T00:39:16;95956.03;;;3.38;100.00
36828;BME280;22766;48.042;11.192;2023-02-04T00:41:43;95952.75;;;3.36;100.00
36828;BME280;22766;48.042;11.192;2023-02-04T00:44:09;95959.69;;;3.34;100.00
36828;BME280;22766;48.042;11.192;2023-02-04T00:46:36;95951.56;;;3.28;100.00
36828;BME280;22766;48.042;11.192;2023-02-04T00:49:03;95958.88;;;3.34;100.00
36828;BME280;22766;48.042;11.192;2023-02-04T00:51:32;95954.75;;;3.31;100.00
36828;BME280;22766;48.042;11.192;2023-02-04T00:53:59;95954.00;;;3.29;100.00
36828;BME280;22766;48.042;11.192;2023-02-04T00:56:26;95956.75;;;3.26;100.00
36828;BME280;22766;48.042;11.192;2023-02-04T00:58:52;95962.91;;;3.22;100.00
36828;BME280;22766;48.042;11.192;2023-02-04T01:01:19;95956.53;;;3.15;100.00
36828;BME280;22766;48.042;11.192;2023-02-04T01:03:46;95967.75;;;3.27;100.00
36828;BME280;22766;48.042;11.192;2023-02-04T01:06:12;95974.19;;;3.18;100.00
36828;BME280;22766;48.042;11.192;2023-02-04T01:08:42;95976.16;;;3.29;100.00
36828;BME280;22766;48.042;11.192;2023-02-04T01:11:08;95968.69;;;3.26;100.00
36828;BME280;22766;48.042;11.192;2023-02-04T01:13:36;95964.97;;;3.16;100.00
36828;BME280;22766;48.042;11.192;2023-02-04T01:16:02;95981.03;;;3.18;100.00
36828;BME280;22766;48.042;11.192;2023-02-04T01:18:29;95973.13;;;3.22;100.00
36828;BME280;22766;48.042;11.192;2023-02-04T01:20:57;95981.25;;;3.29;100.00
36828;BME280;22766;48.042;11.192;2023-02-04T01:23:23;95972.84;;;3.27;100.00
36828;BME280;22766;48.042;11.192;2023-02-04T01:25:50;95975.91;;;3.33;100.00
36828;BME280;22766;48.042;11.192;2023-02-04T01:28:17;95978.56;;;3.32;100.00
36828;BME280;22766;48.042;11.192;2023-02-04T01:30:43;95993.03;;;3.31;100.00
36828;BME280;22766;48.042;11.192;2023-02-04T01:33:10;95983.81;;;3.29;100.00
36828;BME280;22766;48.042;11.192;2023-02-04T01:35:37;95987.59;;;3.37;100.00
36828;BME280;22766;48.042;11.192;2023-02-04T01:38:03;95990.06;;;3.39;100.00
36828;BME280;22766;48.042;11.192;2023-02-04T01:40:30;95994.22;;;3.55;100.00
36828;BME280;22766;48.042;11.192;2023-02-04T01:42:57;95988.38;;;3.53;100.00
36828;BME280;22766;48.042;11.192;2023-02-04T01:45:24;95986.25;;;3.46;100.00
36828;BME280;22766;48.042;11.192;2023-02-04T01:47:51;96005.75;;;3.62;100.00
36828;BME280;22766;48.042;11.192;2023-02-04T01:50:18;95989.34;;;3.66;100.00
36828;BME280;22766;48.042;11.192;2023-02-04T01:52:45;96000.56;;;3.64;100.00
36828;BME280;22766;48.042;11.192;2023-02-04T01:55:17;96000.78;;;3.59;100.00
36828;BME280;22766;48.042;11.192;2023-02-04T01:57:45;96004.00;;;3.63;100.00
36828;BME280;22766;48.042;11.192;2023-02-04T02:00:18;96002.59;;;3.57;100.00
36828;BME280;22766;48.042;11.192;2023-02-04T02:02:50;96012.44;;;3.49;100.00
36828;BME280;22766;48.042;11.192;2023-02-04T02:08:13;96013.75;;;3.56;100.00
36828;BME280;22766;48.042;11.192;2023-02-04T02:10:44;96002.97;;;3.51;100.00
36828;BME280;22766;48.042;11.192;2023-02-04T02:13:15;96001.72;;;3.58;100.00
36828;BME280;22766;48.042;11.192;2023-02-04T02:15:43;96022.28;;;3.71;100.00
36828;BME280;22766;48.042;11.192;2023-02-04T02:18:10;96022.25;;;3.57;100.00
36828;BME280;22766;48.042;11.192;2023-02-04T02:20:36;96033.84;;;3.62;100.00
36828;BME280;22766;48.042;11.192;2023-02-04T02:25:31;96033.34;;;3.40;100.00
36828;BME280;22766;48.042;11.192;2023-02-04T02:27:58;96038.81;;;3.34;100.00
36828;BME280;22766;48.042;11.192;2023-02-04T02:30:26;96040.53;;;3.34;100.00
36828;BME280;22766;48.042;11.192;2023-02-04T02:32:55;96048.19;;;3.49;100.00
36828;BME280;22766;48.042;11.192;2023-02-04T02:35:22;96051.16;;;3.42;100.00
36828;BME280;22766;48.042;11.192;2023-02-04T02:37:49;96061.38;;;3.42;100.00
36828;BME280;22766;48.042;11.192;2023-02-04T02:40:15;96058.31;;;3.51;100.00
36828;BME280;22766;48.042;11.192;2023-02-04T02:42:44;96076.94;;;3.37;100.00
36828;BME280;22766;48.042;11.192;2023-02-04T02:45:25;96085.22;;;3.41;100.00
36828;BME280;22766;48.042;11.192;2023-02-04T02:47:53;96089.38;;;3.43;100.00
36828;BME280;22766;48.042;11.192;2023-02-04T02:50:23;96093.53;;;3.44;100.00
36828;BME280;22766;48.042;11.192;2023-02-04T02:52:52;96093.88;;;3.54;100.00
36828;BME280;22766;48.042;11.192;2023-02-04T02:55:23;96092.78;;;3.73;100.00
36828;BME280;22766;48.042;11.192;2023-02-04T02:57:51;96084.25;;;3.43;100.00
36828;BME280;22766;48.042;11.192;2023-02-04T03:02:54;96083.44;;;3.43;100.00
36828;BME280;22766;48.042;11.192;2023-02-04T03:05:23;96075.19;;;3.22;100.00
36828;BME280;22766;48.042;11.192;2023-02-04T03:07:50;96087.03;;;3.23;100.00
36828;BME280;22766;48.042;11.192;2023-02-04T03:10:17;96084.25;;;3.12;100.00
36828;BME280;22766;48.042;11.192;2023-02-04T03:12:44;96089.53;;;3.25;100.00
36828;BME280;22766;48.042;11.192;2023-02-04T03:15:13;96097.34;;;3.22;100.00
36828;BME280;22766;48.042;11.192;2023-02-04T03:17:40;96097.59;;;3.17;100.00
36828;BME280;22766;48.042;11.192;2023-02-04T03:20:08;96105.53;;;2.96;100.00
36828;BME280;22766;48.042;11.192;2023-02-04T03:22:35;96104.03;;;2.92;100.00
36828;BME280;22766;48.042;11.192;2023-02-04T03:25:02;96122.72;;;2.92;100.00
36828;BME280;22766;48.042;11.192;2023-02-04T03:27:29;96135.78;;;2.86;100.00
36828;BME280;22766;48.042;11.192;2023-02-04T03:29:55;96142.16;;;2.77;100.00
36828;BME280;22766;48.042;11.192;2023-02-04T03:32:22;96147.22;;;2.79;100.00
36828;BME280;22766;48.042;11.192;2023-02-04T03:34:48;96153.16;;;2.95;100.00
36828;BME280;22766;48.042;11.192;2023-02-04T03:37:15;96151.66;;;2.91;100.00
36828;BME280;22766;48.042;11.192;2023-02-04T03:39:42;96150.56;;;3.12;100.00
36828;BME280;22766;48.042;11.192;2023-02-04T03:42:08;96139.47;;;3.13;100.00
36828;BME280;22766;48.042;11.192;2023-02-04T03:44:35;96138.97;;;3.07;100.00
36828;BME280;22766;48.042;11.192;2023-02-04T03:47:01;96139.75;;;3.24;100.00
36828;BME280;22766;48.042;11.192;2023-02-04T03:49:28;96148.88;;;3.28;100.00
36828;BME280;22766;48.042;11.192;2023-02-04T03:51:54;96160.00;;;3.43;100.00
36828;BME280;22766;48.042;11.192;2023-02-04T03:54:21;96161.66;;;3.28;100.00
36828;BME280;22766;48.042;11.192;2023-02-04T03:56:47;96156.88;;;3.38;100.00
36828;BME280;22766;48.042;11.192;2023-02-04T03:59:14;96161.81;;;3.41;100.00
36828;BME280;22766;48.042;11.192;2023-02-04T04:01:40;96165.69;;;3.32;100.00
36828;BME280;22766;48.042;11.192;2023-02-04T04:04:07;96173.78;;;3.23;100.00
36828;BME280;22766;48.042;11.192;2023-02-04T04:06:34;96176.69;;;3.17;100.00
36828;BME280;22766;48.042;11.192;2023-02-04T04:09:00;96179.38;;;3.14;100.00
36828;BME280;22766;48.042;11.192;2023-02-04T04:11:27;96186.72;;;3.20;100.00
36828;BME280;22766;48.042;11.192;2023-02-04T04:13:53;96200.38;;;3.19;100.00
36828;BME280;22766;48.042;11.192;2023-02-04T04:16:20;96196.28;;;3.17;100.00
36828;BME280;22766;48.042;11.192;2023-02-04T04:18:47;96198.06;;;3.15;100.00
36828;BME280;22766;48.042;11.192;2023-02-04T04:21:14;96202.66;;;3.08;100.00
36828;BME280;22766;48.042;11.192;2023-02-04T04:23:40;96203.31;;;3.12;100.00
36828;BME280;22766;48.042;11.192;2023-02-04T04:26:07;96202.50;;;3.11;100.00
36828;BME280;22766;48.042;11.192;2023-02-04T04:28:33;96209.50;;;3.08;100.00
36828;BME280;22766;48.042;11.192;2023-02-04T04:31:00;96205.47;;;3.19;100.00
36828;BME280;22766;48.042;11.192;2023-02-04T04:33:27;96206.47;;;3.17;100.00
36828;BME280;22766;48.042;11.192;2023-02-04T04:35:53;96221.13;;;3.13;100.00
36828;BME280;22766;48.042;11.192;2023-02-04T04:38:20;96212.78;;;3.10;100.00
36828;BME280;22766;48.042;11.192;2023-02-04T04:40:46;96217.06;;;3.09;100.00
36828;BME280;22766;48.042;11.192;2023-02-04T04:43:13;96207.66;;;3.10;100.00
36828;BME280;22766;48.042;11.192;2023-02-04T04:45:40;96218.97;;;3.06;100.00
36828;BME280;22766;48.042;11.192;2023-02-04T04:48:06;96205.19;;;3.08;100.00
36828;BME280;22766;48.042;11.192;2023-02-04T04:50:33;96208.97;;;3.01;100.00
36828;BME280;22766;48.042;11.192;2023-02-04T04:53:00;96209.06;;;3.00;100.00
36828;BME280;22766;48.042;11.192;2023-02-04T04:55:27;96211.63;;;3.00;100.00
36828;BME280;22766;48.042;11.192;2023-02-04T04:57:53;96219.72;;;2.91;100.00
36828;BME280;22766;48.042;11.192;2023-02-04T05:00:20;96223.25;;;2.88;100.00
36828;BME280;22766;48.042;11.192;2023-02-04T05:02:47;96226.63;;;2.89;100.00
36828;BME280;22766;48.042;11.192;2023-02-04T05:05:13;96232.13;;;2.81;100.00
36828;BME280;22766;48.042;11.192;2023-02-04T05:07:40;96237.50;;;2.75;100.00
36828;BME280;22766;48.042;11.192;2023-02-04T05:10:07;96243.50;;;2.74;100.00
36828;BME280;22766;48.042;11.192;2023-02-04T05:12:34;96239.00;;;2.79;100.00
36828;BME280;22766;48.042;11.192;2023-02-04T05:15:01;96237.44;;;2.76;100.00
36828;BME280;22766;48.042;11.192;2023-02-04T05:17:27;96252.66;;;2.78;100.00
36828;BME280;22766;48.042;11.192;2023-02-04T05:19:54;96246.13;;;2.72;100.00
36828;BME280;22766;48.042;11.192;2023-02-04T05:22:20;96253.97;;;2.85;100.00
36828;BME280;22766;48.042;11.192;2023-02-04T05:24:47;96259.63;;;2.74;100.00
36828;BME280;22766;48.042;11.192;2023-02-04T05:27:14;96260.91;;;2.83;100.00
36828;BME280;22766;48.042;11.192;2023-02-04T05:29:40;96266.34;;;2.75;100.00
36828;BME280;22766;48.042;11.192;2023-02-04T05:32:07;96253.69;;;2.74;100.00
36828;BME280;22766;48.042;11.192;2023-02-04T05:34:33;96262.47;;;2.85;100.00
36828;BME280;22766;48.042;11.192;2023-02-04T05:37:00;96260.66;;;2.88;100.00
36828;BME280;22766;48.042;11.192;2023-02-04T05:39:27;96271.78;;;2.87;100.00
36828;BME280;22766;48.042;11.192;2023-02-04T05:41:54;96266.31;;;2.77;100.00
36828;BME280;22766;48.042;11.192;2023-02-04T05:44:20;96268.69;;;2.63;100.00
36828;BME280;22766;48.042;11.192;2023-02-04T05:46:47;96282.78;;;2.70;100.00
36828;BME280;22766;48.042;11.192;2023-02-04T05:49:13;96267.94;;;2.61;100.00
36828;BME280;22766;48.042;11.192;2023-02-04T05:51:40;96278.50;;;2.53;100.00
36828;BME280;22766;48.042;11.192;2023-02-04T05:54:06;96279.03;;;2.60;100.00
36828;BME280;22766;48.042;11.192;2023-02-04T05:56:33;96289.66;;;2.51;100.00
36828;BME280;22766;48.042;11.192;2023-02-04T05:59:00;96287.25;;;2.48;100.00
36828;BME280;22766;48.042;11.192;2023-02-04T06:01:26;96297.56;;;2.28;100.00
36828;BME280;22766;48.042;11.192;2023-02-04T06:03:53;96295.41;;;2.19;100.00
36828;BME280;22766;48.042;11.192;2023-02-04T06:06:19;96311.13;;;2.10;100.00
36828;BME280;22766;48.042;11.192;2023-02-04T06:08:46;96314.63;;;2.07;100.00
36828;BME280;22766;48.042;11.192;2023-02-04T06:11:12;96318.78;;;2.10;100.00
36828;BME280;22766;48.042;11.192;2023-02-04T06:13:39;96320.91;;;2.00;100.00
36828;BME280;22766;48.042;11.192;2023-02-04T06:16:06;96325.81;;;2.05;100.00
36828;BME280;22766;48.042;11.192;2023-02-04T06:18:32;96322.78;;;1.97;100.00
36828;BME280;22766;48.042;11.192;2023-02-04T06:20:59;96333.16;;;1.92;100.00
36828;BME280;22766;48.042;11.192;2023-02-04T06:23:30;96335.50;;;1.78;100.00
36828;BME280;22766;48.042;11.192;2023-02-04T06:26:00;96345.09;;;1.71;100.00
36828;BME280;22766;48.042;11.192;2023-02-04T06:28:27;96346.69;;;1.74;100.00
36828;BME280;22766;48.042;11.192;2023-02-04T06:30:56;96335.25;;;1.64;100.00
36828;BME280;22766;48.042;11.192;2023-02-04T06:33:23;96335.41;;;1.61;100.00
36828;BME280;22766;48.042;11.192;2023-02-04T06:35:50;96340.09;;;1.70;100.00
36828;BME280;22766;48.042;11.192;2023-02-04T06:38:17;96346.34;;;1.63;100.00
36828;BME280;22766;48.042;11.192;2023-02-04T06:40:44;96336.28;;;1.60;100.00
36828;BME280;22766;48.042;11.192;2023-02-04T06:43:15;96347.38;;;1.59;100.00
36828;BME280;22766;48.042;11.192;2023-02-04T06:45:41;96352.44;;;1.59;100.00
36828;BME280;22766;48.042;11.192;2023-02-04T06:48:08;96354.09;;;1.60;100.00
36828;BME280;22766;48.042;11.192;2023-02-04T06:50:35;96356.63;;;1.60;100.00
36828;BME280;22766;48.042;11.192;2023-02-04T06:53:02;96359.75;;;1.66;100.00
36828;BME280;22766;48.042;11.192;2023-02-04T06:55:28;96367.41;;;1.66;100.00
36828;BME280;22766;48.042;11.192;2023-02-04T06:57:55;96365.63;;;1.68;100.00
36828;BME280;22766;48.042;11.192;2023-02-04T07:00:22;96377.31;;;1.72;100.00
36828;BME280;22766;48.042;11.192;2023-02-04T07:02:51;96372.09;;;1.75;100.00
36828;BME280;22766;48.042;11.192;2023-02-04T07:05:18;96375.41;;;1.77;100.00
36828;BME280;22766;48.042;11.192;2023-02-04T07:07:45;96378.53;;;1.84;100.00
36828;BME280;22766;48.042;11.192;2023-02-04T07:10:15;96376.25;;;1.97;100.00
36828;BME280;22766;48.042;11.192;2023-02-04T07:12:42;96377.63;;;2.04;100.00
36828;BME280;22766;48.042;11.192;2023-02-04T07:15:09;96382.53;;;2.08;100.00
36828;BME280;22766;48.042;11.192;2023-02-04T07:17:36;96385.84;;;2.29;100.00
36828;BME280;22766;48.042;11.192;2023-02-04T07:20:02;96393.97;;;2.18;100.00
36828;BME280;22766;48.042;11.192;2023-02-04T07:22:29;96392.72;;;2.08;100.00
36828;BME280;22766;48.042;11.192;2023-02-04T07:24:56;96395.06;;;2.13;100.00
36828;BME280;22766;48.042;11.192;2023-02-04T07:27:22;96397.88;;;2.07;100.00
36828;BME280;22766;48.042;11.192;2023-02-04T07:29:49;96400.56;;;2.04;100.00
36828;BME280;22766;48.042;11.192;2023-02-04T07:32:15;96414.88;;;2.06;100.00
36828;BME280;22766;48.042;11.192;2023-02-04T07:34:42;96419.28;;;2.03;100.00
36828;BME280;22766;48.042;11.192;2023-02-04T07:37:08;96412.34;;;2.06;100.00
36828;BME280;22766;48.042;11.192;2023-02-04T07:39:35;96419.06;;;2.07;100.00
36828;BME280;22766;48.042;11.192;2023-02-04T07:42:02;96420.88;;;2.05;100.00
36828;BME280;22766;48.042;11.192;2023-02-04T07:44:34;96425.75;;;2.10;100.00
36828;BME280;22766;48.042;11.192;2023-02-04T07:47:02;96430.16;;;2.06;100.00
36828;BME280;22766;48.042;11.192;2023-02-04T07:49:29;96436.16;;;2.05;100.00
36828;BME280;22766;48.042;11.192;2023-02-04T07:51:56;96434.69;;;2.00;100.00
36828;BME280;22766;48.042;11.192;2023-02-04T07:54:23;96427.34;;;1.94;100.00
36828;BME280;22766;48.042;11.192;2023-02-04T07:56:49;96433.56;;;1.86;100.00
36828;BME280;22766;48.042;11.192;2023-02-04T07:59:16;96440.38;;;1.86;100.00
36828;BME280;22766;48.042;11.192;2023-02-04T08:01:42;96439.75;;;1.81;100.00
36828;BME280;22766;48.042;11.192;2023-02-04T08:04:09;96456.72;;;1.80;100.00
36828;BME280;22766;48.042;11.192;2023-02-04T08:06:36;96443.22;;;1.99;100.00
36828;BME280;22766;48.042;11.192;2023-02-04T08:09:02;96445.63;;;2.40;100.00
36828;BME280;22766;48.042;11.192;2023-02-04T08:11:32;96447.63;;;2.71;100.00
36828;BME280;22766;48.042;11.192;2023-02-04T08:13:58;96454.66;;;3.20;100.00
36828;BME280;22766;48.042;11.192;2023-02-04T08:16:25;96445.53;;;3.67;100.00
36828;BME280;22766;48.042;11.192;2023-02-04T08:18:52;96445.44;;;3.86;100.00
36828;BME280;22766;48.042;11.192;2023-02-04T08:21:18;96439.16;;;3.76;100.00
36828;BME280;22766;48.042;11.192;2023-02-04T08:23:45;96442.91;;;3.69;100.00
36828;BME280;22766;48.042;11.192;2023-02-04T08:26:11;96440.78;;;3.94;100.00
36828;BME280;22766;48.042;11.192;2023-02-04T08:28:38;96439.00;;;4.29;100.00
36828;BME280;22766;48.042;11.192;2023-02-04T08:31:05;96447.53;;;4.60;100.00
36828;BME280;22766;48.042;11.192;2023-02-04T08:33:32;96450.03;;;4.93;100.00
36828;BME280;22766;48.042;11.192;2023-02-04T08:35:59;96457.19;;;5.63;100.00
36828;BME280;22766;48.042;11.192;2023-02-04T08:38:26;96450.63;;;6.03;100.00
36828;BME280;22766;48.042;11.192;2023-02-04T08:40:53;96446.44;;;6.16;100.00
36828;BME280;22766;48.042;11.192;2023-02-04T08:43:19;96459.19;;;6.45;100.00
36828;BME280;22766;48.042;11.192;2023-02-04T08:45:46;96461.66;;;6.47;100.00
36828;BME280;22766;48.042;11.192;2023-02-04T08:48:12;96460.53;;;6.65;100.00
36828;BME280;22766;48.042;11.192;2023-02-04T08:50:39;96457.69;;;6.84;100.00
36828;BME280;22766;48.042;11.192;2023-02-04T08:53:06;96465.31;;;6.85;100.00
36828;BME280;22766;48.042;11.192;2023-02-04T08:55:33;96454.56;;;6.93;100.00
36828;BME280;22766;48.042;11.192;2023-02-04T08:58:00;96462.38;;;6.77;100.00
36828;BME280;22766;48.042;11.192;2023-02-04T09:00:28;96462.72;;;7.26;100.00
36828;BME280;22766;48.042;11.192;2023-02-04T09:02:55;96471.69;;;7.06;100.00
36828;BME280;22766;48.042;11.192;2023-02-04T09:05:22;96470.72;;;6.81;100.00
36828;BME280;22766;48.042;11.192;2023-02-04T09:07:49;96482.44;;;6.42;100.00
36828;BME280;22766;48.042;11.192;2023-02-04T09:10:15;96481.88;;;6.09;100.00
36828;BME280;22766;48.042;11.192;2023-02-04T09:12:42;96484.19;;;5.68;100.00
36828;BME280;22766;48.042;11.192;2023-02-04T09:15:10;96490.63;;;5.76;100.00
36828;BME280;22766;48.042;11.192;2023-02-04T09:17:37;96485.69;;;5.88;100.00
36828;BME280;22766;48.042;11.192;2023-02-04T09:20:04;96488.78;;;5.93;100.00
36828;BME280;22766;48.042;11.192;2023-02-04T09:22:31;96493.38;;;5.72;100.00
36828;BME280;22766;48.042;11.192;2023-02-04T09:24:58;96497.78;;;5.55;100.00
36828;BME280;22766;48.042;11.192;2023-02-04T09:27:25;96495.41;;;5.52;100.00
36828;BME280;22766;48.042;11.192;2023-02-04T09:29:51;96493.59;;;5.54;100.00
36828;BME280;22766;48.042;11.192;2023-02-04T09:32:18;96486.22;;;5.48;100.00
36828;BME280;22766;48.042;11.192;2023-02-04T09:34:44;96493.16;;;5.46;100.00
36828;BME280;22766;48.042;11.192;2023-02-04T09:37:11;96495.91;;;5.43;100.00
36828;BME280;22766;48.042;11.192;2023-02-04T09:39:37;96497.56;;;5.28;100.00
36828;BME280;22766;48.042;11.192;2023-02-04T09:42:04;96508.56;;;5.15;100.00
36828;BME280;22766;48.042;11.192;2023-02-04T09:44:31;96510.97;;;5.18;100.00
36828;BME280;22766;48.042;11.192;2023-02-04T09:46:59;96507.88;;;5.11;100.00
36828;BME280;22766;48.042;11.192;2023-02-04T09:49:26;96511.72;;;5.20;100.00
36828;BME280;22766;48.042;11.192;2023-02-04T09:51:54;96513.00;;;5.27;100.00
36828;BME280;22766;48.042;11.192;2023-02-04T09:54:22;96510.53;;;5.56;100.00
36828;BME280;22766;48.042;11.192;2023-02-04T09:56:50;96519.97;;;5.70;100.00
36828;BME280;22766;48.042;11.192;2023-02-04T09:59:19;96519.88;;;5.87;100.00
36828;BME280;22766;48.042;11.192;2023-02-04T10:02:00;96521.41;;;5.60;100.00
36828;BME280;22766;48.042;11.192;2023-02-04T10:04:28;96521.56;;;5.57;100.00
36828;BME280;22766;48.042;11.192;2023-02-04T10:06:54;96520.84;;;5.55;100.00
36828;BME280;22766;48.042;11.192;2023-02-04T10:09:24;96524.88;;;5.59;100.00
36828;BME280;22766;48.042;11.192;2023-02-04T10:11:50;96526.38;;;5.63;100.00
36828;BME280;22766;48.042;11.192;2023-02-04T10:14:20;96521.25;;;5.63;100.00
36828;BME280;22766;48.042;11.192;2023-02-04T10:16:53;96522.91;;;5.64;100.00
36828;BME280;22766;48.042;11.192;2023-02-04T10:19:26;96529.75;;;5.63;100.00
36828;BME280;22766;48.042;11.192;2023-02-04T10:21:54;96530.72;;;5.77;100.00
36828;BME280;22766;48.042;11.192;2023-02-04T10:24:25;96535.09;;;5.75;100.00
36828;BME280;22766;48.042;11.192;2023-02-04T10:26:53;96532.13;;;5.66;100.00
36828;BME280;22766;48.042;11.192;2023-02-04T10:29:22;96531.03;;;5.56;100.00
36828;BME280;22766;48.042;11.192;2023-02-04T10:31:52;96531.66;;;5.60;100.00
36828;BME280;22766;48.042;11.192;2023-02-04T10:34:30;96525.91;;;5.56;100.00
36828;BME280;22766;48.042;11.192;2023-02-04T10:36:57;96526.13;;;5.83;100.00
36828;BME280;22766;48.042;11.192;2023-02-04T10:39:26;96529.66;;;5.96;100.00
36828;BME280;22766;48.042;11.192;2023-02-04T10:41:58;96523.84;;;5.93;100.00
36828;BME280;22766;48.042;11.192;2023-02-04T10:44:30;96513.88;;;6.02;100.00
36828;BME280;22766;48.042;11.192;2023-02-04T10:47:06;96514.72;;;6.03;100.00
36828;BME280;22766;48.042;11.192;2023-02-04T10:49:34;96521.13;;;6.10;100.00
36828;BME280;22766;48.042;11.192;2023-02-04T10:52:05;96516.09;;;6.08;100.00
36828;BME280;22766;48.042;11.192;2023-02-04T10:54:39;96520.00;;;6.15;100.00
36828;BME280;22766;48.042;11.192;2023-02-04T10:57:26;96518.94;;;6.47;100.00
36828;BME280;22766;48.042;11.192;2023-02-04T10:59:55;96524.16;;;6.88;100.00
36828;BME280;22766;48.042;11.192;2023-02-04T11:02:35;96513.88;;;7.02;100.00
36828;BME280;22766;48.042;11.192;2023-02-04T11:05:10;96522.78;;;6.83;100.00
36828;BME280;22766;48.042;11.192;2023-02-04T11:07:37;96511.50;;;6.43;100.00
36828;BME280;22766;48.042;11.192;2023-02-04T11:10:04;96521.66;;;6.30;100.00
36828;BME280;22766;48.042;11.192;2023-02-04T11:15:04;96523.13;;;5.91;100.00
36828;BME280;22766;48.042;11.192;2023-02-04T11:17:32;96521.78;;;5.68;100.00
36828;BME280;22766;48.042;11.192;2023-02-04T11:20:11;96521.00;;;5.83;100.00
36828;BME280;22766;48.042;11.192;2023-02-04T11:22:44;96517.94;;;5.61;100.00
36828;BME280;22766;48.042;11.192;2023-02-04T11:25:34;96517.91;;;5.77;100.00
36828;BME280;22766;48.042;11.192;2023-02-04T11:28:26;96520.63;;;5.89;100.00
36828;BME280;22766;48.042;11.192;2023-02-04T11:31:59;96518.88;;;6.19;100.00
36828;BME280;22766;48.042;11.192;2023-02-04T11:34:09;96512.63;;;6.53;100.00
36828;BME280;22766;48.042;11.192;2023-02-04T11:39:27;96518.44;;;7.52;100.00
36828;BME280;22766;48.042;11.192;2023-02-04T11:41:58;96518.63;;;9.52;100.00
36828;BME280;22766;48.042;11.192;2023-02-04T11:44:25;96511.13;;;10.42;100.00
36828;BME280;22766;48.042;11.192;2023-02-04T11:46:53;96515.72;;;11.49;84.34
36828;BME280;22766;48.042;11.192;2023-02-04T11:49:25;96517.91;;;10.88;74.35
36828;BME280;22766;48.042;11.192;2023-02-04T11:52:06;96517.53;;;10.71;78.51
36828;BME280;22766;48.042;11.192;2023-02-04T11:54:36;96519.16;;;10.83;68.78
36828;BME280;22766;48.042;11.192;2023-02-04T11:57:03;96508.94;;;11.90;69.43
36828;BME280;22766;48.042;11.192;2023-02-04T11:59:30;96507.06;;;13.35;62.02
36828;BME280;22766;48.042;11.192;2023-02-04T12:02:05;96501.56;;;14.35;53.29
36828;BME280;22766;48.042;11.192;2023-02-04T12:04:32;96504.78;;;13.11;52.39
36828;BME280;22766;48.042;11.192;2023-02-04T12:07:02;96505.28;;;12.75;58.30
36828;BME280;22766;48.042;11.192;2023-02-04T12:09:30;96512.47;;;12.10;55.57
36828;BME280;22766;48.042;11.192;2023-02-04T12:11:59;96505.28;;;11.39;56.64
36828;BME280;22766;48.042;11.192;2023-02-04T12:14:37;96501.25;;;10.24;61.81
36828;BME280;22766;48.042;11.192;2023-02-04T12:17:18;96506.78;;;9.36;71.72
36828;BME280;22766;48.042;11.192;2023-02-04T12:19:45;96504.88;;;9.27;77.85
36828;BME280;22766;48.042;11.192;2023-02-04T12:22:12;96509.00;;;9.54;77.68
36828;BME280;22766;48.042;11.192;2023-02-04T12:24:40;96504.41;;;9.93;78.48
36828;BME280;22766;48.042;11.192;2023-02-04T12:27:06;96498.81;;;10.56;69.27
36828;BME280;22766;48.042;11.192;2023-02-04T12:29:33;96503.03;;;10.35;71.42
36828;BME280;22766;48.042;11.192;2023-02-04T12:32:00;96505.59;;;9.29;69.51
36828;BME280;22766;48.042;11.192;2023-02-04T12:34:26;96515.38;;;8.38;75.68
36828;BME280;22766;48.042;11.192;2023-02-04T12:36:54;96517.59;;;7.78;82.06
36828;BME280;22766;48.042;11.192;2023-02-04T12:39:20;96514.75;;;7.56;87.03
36828;BME280;22766;48.042;11.192;2023-02-04T12:41:47;96509.03;;;7.38;88.21
36828;BME280;22766;48.042;11.192;2023-02-04T12:44:13;96511.81;;;7.21;89.89
36828;BME280;22766;48.042;11.192;2023-02-04T12:46:42;96511.34;;;7.29;89.49
36828;BME280;22766;48.042;11.192;2023-02-04T12:49:09;96506.09;;;7.30;90.93
36828;BME280;22766;48.042;11.192;2023-02-04T12:51:35;96502.97;;;7.39;90.76
36828;BME280;22766;48.042;11.192;2023-02-04T12:54:02;96506.22;;;7.29;87.64
36828;BME280;22766;48.042;11.192;2023-02-04T12:56:28;96514.50;;;7.73;87.10
36828;BME280;22766;48.042;11.192;2023-02-04T12:58:55;96511.09;;;9.25;78.09
36828;BME280;22766;48.042;11.192;2023-02-04T13:01:22;96505.09;;;9.61;67.09
36828;BME280;22766;48.042;11.192;2023-02-04T13:03:48;96512.38;;;10.01;62.91
36828;BME280;22766;48.042;11.192;2023-02-04T13:06:15;96519.69;;;9.36;65.57